首页
METAR-TAF:

METAR-TAF

机场 :

Rocky Mount, 北卡罗来纳州, 美国

Rocky Mount-Wilson Regional Airport

纬度: 35-51-18N, 经度: 077-53-35W, 海拔: 49米

当前天气观测

该预报发布于41分钟前的13:53 UTC
风速5节,风向
温度 15°C
湿度 63%
气压 1029 hPa
能見度: 16.1公里
天空无云

METAR: KRWI 221353Z AUTO 17005KT 10SM CLR 15/08 A3040 RMK AO2 SLP294 T01500078

时间: 10:34 (14:34 UTC)

预报

该预报发布于3小时和14分钟前的11:20 UTC
预报有效从22日的 12点(UTC)到 23日的 12点(UTC)
风速6节,风向东转东南
能見度: 10公里
多云层高于25000英尺

TAF: KRWI 221120Z 2212/2312 12006KT P6SM BKN250

超过4000个机场的气象观测和天气预报(METAR&TAF报告)。

可查询的气象台以黄色和红色小点在地图上表示。

将鼠标移到小点上方,可查看气象台名称。

然后点击查看天气观测和预报。

如需切换地图:点击带黑十字的绿色按钮放大地图;点击带横线的绿色按钮缩小地图;或者点击绿色箭头查看邻近地区的地图。


METAR-TAF: